createdAt,value
2023-02-19T00:00:02.676Z,0
2023-02-19T00:15:02.895Z,0
2023-02-19T00:30:02.513Z,0
2023-02-19T00:45:02.801Z,0
2023-02-19T01:00:03.205Z,0
2023-02-19T01:15:02.676Z,0
2023-02-19T01:30:03.140Z,0
2023-02-19T01:45:02.689Z,0
2023-02-19T02:00:02.983Z,0
2023-02-19T02:15:02.435Z,0
2023-02-19T02:30:02.891Z,0
2023-02-19T02:45:02.334Z,0
2023-02-19T03:00:02.766Z,0
2023-02-19T03:15:03.205Z,0
2023-02-19T03:30:02.798Z,0
2023-02-19T03:45:03.088Z,0
2023-02-19T04:00:02.715Z,0
2023-02-19T04:15:02.953Z,0
2023-02-19T04:30:02.533Z,0
2023-02-19T04:45:02.856Z,0
2023-02-19T05:00:02.252Z,0
2023-02-19T05:15:02.727Z,0
2023-02-19T05:30:02.213Z,0
2023-02-19T05:45:02.733Z,0
2023-02-19T06:00:03.001Z,0
2023-02-19T06:15:02.442Z,0
2023-02-19T06:30:02.925Z,0
2023-02-19T06:45:02.311Z,0
2023-02-19T07:00:02.784Z,3
2023-02-19T07:15:03.176Z,9
2023-02-19T07:30:02.831Z,15
2023-02-19T07:45:02.041Z,34
2023-02-19T08:00:02.562Z,19
2023-02-19T08:15:02.955Z,14
2023-02-19T08:30:02.372Z,21
2023-02-19T08:45:02.803Z,39
2023-02-19T09:00:03.248Z,88
2023-02-19T09:15:02.774Z,69
2023-02-19T09:30:02.159Z,173
2023-02-19T09:45:02.785Z,161
2023-02-19T10:00:02.973Z,247
2023-02-19T10:15:02.400Z,300
2023-02-19T10:30:02.924Z,228
2023-02-19T10:45:02.289Z,227
2023-02-19T11:00:02.810Z,212
2023-02-19T11:15:03.160Z,168
2023-02-19T11:30:02.896Z,290
2023-02-19T11:45:02.013Z,249
2023-02-19T12:00:02.463Z,153
2023-02-19T12:15:02.914Z,327
2023-02-19T12:30:02.352Z,148
2023-02-19T12:45:02.816Z,160
2023-02-19T13:00:02.188Z,394
2023-02-19T13:15:02.812Z,94
2023-02-19T13:30:02.194Z,236
2023-02-19T13:45:02.555Z,123
2023-02-19T14:00:02.969Z,130
2023-02-19T14:15:02.378Z,93
2023-02-19T14:30:02.859Z,82
2023-02-19T14:45:02.259Z,52
2023-02-19T15:00:02.866Z,68
2023-02-19T15:15:02.117Z,58
2023-02-19T15:30:02.701Z,45
2023-02-19T15:45:03.005Z,23
2023-02-19T16:00:02.532Z,8
2023-02-19T16:15:02.899Z,5
2023-02-19T16:30:02.437Z,0
2023-02-19T16:45:02.875Z,0
2023-02-19T17:00:02.190Z,0
2023-02-19T17:15:02.858Z,0
2023-02-19T17:30:02.159Z,0
2023-02-19T17:45:02.491Z,0
2023-02-19T18:00:02.965Z,0
2023-02-19T18:15:02.388Z,0
2023-02-19T18:30:02.917Z,0
2023-02-19T18:45:02.228Z,0
2023-02-19T19:00:02.904Z,0
2023-02-19T19:15:02.140Z,0
2023-02-19T19:30:02.643Z,0
2023-02-19T19:45:03.075Z,0
2023-02-19T20:00:02.465Z,0
2023-02-19T20:15:02.915Z,0
2023-02-19T20:30:02.326Z,0
2023-02-19T20:45:02.902Z,0
2023-02-19T21:00:02.193Z,0
2023-02-19T21:15:02.639Z,0
2023-02-19T21:30:03.085Z,0
2023-02-19T21:45:02.696Z,0
2023-02-19T22:00:03.017Z,0
2023-02-19T22:15:02.379Z,0
2023-02-19T22:30:03.058Z,0
2023-02-19T22:45:02.225Z,0
2023-02-19T23:00:02.913Z,0
2023-02-19T23:15:03.128Z,0
2023-02-19T23:30:02.592Z,0
2023-02-19T23:45:03.035Z,0
